< < Back
Terminal Aerodrome Forecast


Current Version              Previous Versions:   1  2  3  4  5  6  7  8  9  

Terminal Aerodrome Forecast

383
FTUS42 KJAX 311127
TAFSSI
TAF
KSSI 311127Z 3112/0112 VRB06KT 5SM -SHRA BR BKN020
     FM311600 19008KT P6SM -SHRA SCT015 OVC025
     FM311900 20008KT P6SM -SHRA VCTS OVC030CB
     FM010200 23008KT P6SM -SHRA OVC020
     FM010700 21008KT 5SM -SHRA BR OVC010=

Latest METAR

351
SAUS70 KWBC 311400 RRL
MTRSSI
METAR KSSI 311353Z AUTO 21007KT 10SM SCT012 BKN034 OVC050 25/24 A2991
RMK AO2 SLP129 T02500239


USA.gov is the U.S. government's official web portal to all federal, state and local government web resources and services.